Time;durP1;ratioP1;P1;durP2;ratioP2;P2;SDS_P1;SDS_P2;PMS_P1;PMS_P2;Temp;Humidity;BMP_temperature;BMP_pressure;BME280_temperature;BME280_humidity;BME280_pressure;Samples;Min_cycle;Max_cycle;Signal;HPM_P1;HPM_P2
2021/07/26 00:00:29;;;;;;;5.57;5.10;;;;;;;20.95;90.05;95907.47;4996487;28;20176;-70
2021/07/26 00:02:54;;;;;;;6.40;5.90;;;;;;;21.06;89.76;95906.97;4994518;28;20170;-70
2021/07/26 00:05:19;;;;;;;6.40;5.90;;;;;;;21.17;89.60;95907.50;4976941;28;20663;-71
2021/07/26 00:07:45;;;;;;;6.50;5.90;;;;;;;21.19;89.27;95906.13;4977130;28;20174;-69
2021/07/26 00:10:10;;;;;;;6.50;5.80;;;;;;;21.23;89.13;95904.41;4977227;28;20240;-69
2021/07/26 00:12:36;;;;;;;6.70;5.83;;;;;;;21.29;88.70;95913.88;4999902;28;20268;-70
2021/07/26 00:15:02;;;;;;;6.07;5.57;;;;;;;21.35;88.23;95914.56;5015776;28;20698;-71
2021/07/26 00:17:27;;;;;;;6.33;5.73;;;;;;;21.20;88.58;95923.72;5015264;28;20187;-71
2021/07/26 00:19:53;;;;;;;6.20;5.60;;;;;;;20.98;89.34;95920.22;4995896;28;20891;-71
2021/07/26 00:22:18;;;;;;;5.87;5.40;;;;;;;20.91;89.77;95909.16;4996099;28;20181;-71
2021/07/26 00:24:43;;;;;;;7.93;6.60;;;;;;;20.95;89.68;95908.25;4995857;28;20247;-69
2021/07/26 00:27:09;;;;;;;6.70;6.10;;;;;;;20.97;89.38;95910.63;4996240;28;20574;-70
2021/07/26 00:29:34;;;;;;;6.40;5.80;;;;;;;20.80;90.66;95915.84;4996203;28;20181;-69
2021/07/26 00:32:00;;;;;;;6.60;6.10;;;;;;;20.79;90.79;95914.25;4995908;28;20651;-70
2021/07/26 00:34:28;;;;;;;7.50;6.23;;;;;;;20.66;91.12;95910.50;4977561;28;20233;-70
2021/07/26 00:36:56;;;;;;;7.27;6.50;;;;;;;20.66;91.64;95912.38;4976480;28;20171;-70
2021/07/26 00:39:27;;;;;;;6.50;5.93;;;;;;;20.62;91.53;95917.53;4976463;28;20432;-70
2021/07/26 00:41:53;;;;;;;7.73;5.67;;;;;;;20.71;91.31;95918.41;4976421;28;20428;-69
2021/07/26 00:44:20;;;;;;;6.50;5.90;;;;;;;20.66;91.51;95923.84;4975854;28;20429;-70
2021/07/26 00:46:47;;;;;;;6.80;6.20;;;;;;;20.68;91.44;95919.00;4976084;28;20927;-70
2021/07/26 00:49:14;;;;;;;6.53;5.93;;;;;;;20.57;91.83;95922.97;4993949;28;20428;-71
2021/07/26 00:51:43;;;;;;;8.93;6.03;;;;;;;20.70;91.73;95924.84;4996015;28;20883;-69
2021/07/26 00:54:09;;;;;;;9.10;6.13;;;;;;;20.83;90.90;95929.38;4995073;28;20464;-69
2021/07/26 00:56:36;;;;;;;7.60;6.10;;;;;;;20.93;90.56;95923.00;4995438;28;20764;-69
2021/07/26 00:59:02;;;;;;;7.07;6.37;;;;;;;20.90;90.52;95923.59;4994196;28;20418;-70
2021/07/26 01:01:28;;;;;;;6.73;6.13;;;;;;;21.00;90.08;95929.53;4995444;28;20499;-69
2021/07/26 01:03:53;;;;;;;9.50;5.97;;;;;;;21.01;89.86;95931.13;4977006;28;20591;-70
2021/07/26 01:06:19;;;;;;;7.50;6.80;;;;;;;21.02;89.64;95927.34;4975327;28;20181;-71
2021/07/26 01:08:45;;;;;;;5.70;5.20;;;;;;;21.07;89.47;95927.22;4975812;28;20589;-70
2021/07/26 01:11:11;;;;;;;7.20;5.77;;;;;;;21.09;89.29;95926.94;4976143;28;20414;-71
2021/07/26 01:13:37;;;;;;;6.73;6.03;;;;;;;21.06;89.37;95939.03;5014218;28;20542;-70
2021/07/26 01:16:04;;;;;;;7.10;6.50;;;;;;;21.06;89.55;95935.56;5014680;28;20172;-70
2021/07/26 01:18:33;;;;;;;6.53;5.93;;;;;;;21.02;89.80;95935.38;4997427;28;20228;-71
2021/07/26 01:21:13;;;;;;;6.37;5.77;;;;;;;21.01;89.85;95935.69;4995015;28;20413;-69
2021/07/26 01:23:40;;;;;;;7.27;6.10;;;;;;;20.99;90.13;95938.66;4994693;28;20416;-71
2021/07/26 01:26:09;;;;;;;6.53;6.03;;;;;;;20.68;91.65;95928.91;4976785;28;20793;-70
2021/07/26 01:28:38;;;;;;;7.10;6.43;;;;;;;20.55;92.08;95933.16;4975483;28;20414;-71
2021/07/26 01:31:04;;;;;;;6.47;5.90;;;;;;;20.35;92.88;95931.72;4976445;28;20509;-68
2021/07/26 01:33:30;;;;;;;6.33;5.73;;;;;;;20.17;93.98;95929.13;4992915;28;20518;-71
2021/07/26 01:35:56;;;;;;;6.40;5.90;;;;;;;20.16;94.29;95938.22;4993461;28;20417;-71
2021/07/26 01:38:21;;;;;;;6.47;5.97;;;;;;;20.36;93.05;95929.84;4994739;28;20415;-69
2021/07/26 01:40:53;;;;;;;7.20;6.50;;;;;;;20.46;92.54;95926.94;4994643;28;20182;-71
2021/07/26 01:43:19;;;;;;;5.93;5.40;;;;;;;20.32;93.50;95934.97;4994485;28;20165;-71
2021/07/26 01:46:03;;;;;;;6.83;6.23;;;;;;;20.35;93.60;95930.91;4994397;28;20490;-69
2021/07/26 01:48:45;;;;;;;7.07;6.50;;;;;;;20.45;92.61;95918.16;4992054;28;20432;-69
2021/07/26 01:51:15;;;;;;;8.13;7.20;;;;;;;20.37;92.78;95921.53;4994625;28;20512;-70
2021/07/26 01:53:43;;;;;;;7.60;6.83;;;;;;;20.12;94.03;95918.53;4994189;28;20997;-70
2021/07/26 01:56:09;;;;;;;9.70;7.00;;;;;;;20.32;93.51;95920.84;4994562;28;20443;-69
2021/07/26 01:58:35;;;;;;;6.53;5.83;;;;;;;20.20;93.71;95915.22;4994491;28;20436;-69
2021/07/26 02:01:00;;;;;;;7.03;6.33;;;;;;;20.06;94.21;95920.50;4992075;28;20193;-69
2021/07/26 02:03:25;;;;;;;7.20;6.50;;;;;;;19.81;95.84;95923.66;4974596;28;20260;-70
2021/07/26 02:05:50;;;;;;;7.83;5.80;;;;;;;19.84;95.78;95931.06;4974792;28;20245;-70
2021/07/26 02:08:16;;;;;;;7.00;5.60;;;;;;;19.89;95.12;95922.19;4974848;28;20205;-70
2021/07/26 02:10:41;;;;;;;6.90;6.20;;;;;;;19.98;95.35;95920.41;4974772;28;20178;-70
2021/07/26 02:13:07;;;;;;;6.23;5.73;;;;;;;20.02;94.88;95924.84;5006056;28;20663;-71
2021/07/26 02:15:32;;;;;;;7.17;6.60;;;;;;;20.10;94.23;95923.38;5012157;28;20658;-69
2021/07/26 02:17:57;;;;;;;6.60;6.00;;;;;;;19.57;96.92;95922.22;4994172;28;20188;-70
2021/07/26 02:20:23;;;;;;;6.30;5.80;;;;;;;19.78;96.04;95923.44;4993946;28;20236;-70
2021/07/26 02:22:48;;;;;;;7.50;6.87;;;;;;;19.74;96.18;95925.13;4993494;28;20181;-71
2021/07/26 02:25:15;;;;;;;7.63;6.60;;;;;;;19.74;96.61;95923.25;4983436;28;20198;-70
2021/07/26 02:27:40;;;;;;;6.67;6.07;;;;;;;19.66;96.72;95926.56;4974605;28;20185;-69
2021/07/26 02:30:06;;;;;;;8.40;6.10;;;;;;;19.78;96.14;95928.78;4974761;28;20409;-70
2021/07/26 02:32:32;;;;;;;7.70;7.00;;;;;;;20.00;95.19;95939.59;4974681;28;20193;-69
2021/07/26 02:34:57;;;;;;;7.53;6.10;;;;;;;19.82;95.54;95938.56;4976494;28;20202;-71
2021/07/26 02:37:22;;;;;;;6.27;5.77;;;;;;;19.51;97.18;95932.19;4974611;28;20174;-71
2021/07/26 02:39:48;;;;;;;9.60;5.70;;;;;;;19.64;97.33;95933.31;4974552;28;20265;-70
2021/07/26 02:42:13;;;;;;;6.73;6.13;;;;;;;19.36;98.31;95940.41;4974308;28;20181;-69
2021/07/26 02:44:38;;;;;;;6.17;5.67;;;;;;;19.28;99.31;95938.38;4974257;28;20198;-69
2021/07/26 02:47:04;;;;;;;9.30;6.67;;;;;;;19.29;98.91;95945.31;4986595;28;20181;-69
2021/07/26 02:49:30;;;;;;;7.03;6.33;;;;;;;19.32;99.19;95931.41;4993819;28;20176;-70
2021/07/26 02:51:55;;;;;;;7.10;6.40;;;;;;;19.40;98.68;95947.53;4993774;28;20420;-69
2021/07/26 02:54:21;;;;;;;7.87;6.30;;;;;;;19.47;97.91;95952.50;4993552;28;20205;-71
2021/07/26 02:56:46;;;;;;;7.17;6.57;;;;;;;19.40;98.02;95954.75;4993923;28;20232;-70
2021/07/26 02:59:11;;;;;;;7.33;6.57;;;;;;;19.49;98.00;95961.00;4993872;28;20177;-69
2021/07/26 03:01:38;;;;;;;7.57;6.90;;;;;;;19.72;97.04;95957.41;4983030;28;20602;-69
2021/07/26 03:04:04;;;;;;;9.00;6.77;;;;;;;19.69;96.77;95958.00;4979375;28;20202;-70
2021/07/26 03:06:30;;;;;;;6.40;5.90;;;;;;;19.78;96.18;95950.91;4993705;28;21089;-71
2021/07/26 03:08:55;;;;;;;7.70;6.10;;;;;;;19.85;95.96;95954.00;4993717;28;20744;-69
2021/07/26 03:11:20;;;;;;;8.93;6.57;;;;;;;19.89;95.14;95946.97;4995186;28;20212;-69
2021/07/26 03:13:46;;;;;;;6.83;6.27;;;;;;;20.03;94.90;95955.00;5011472;28;20212;-71
2021/07/26 03:16:13;;;;;;;6.63;6.10;;;;;;;20.04;94.63;95953.88;5002466;28;20209;-71
2021/07/26 03:18:39;;;;;;;8.17;5.57;;;;;;;20.09;94.17;95954.59;4974403;28;20174;-70
2021/07/26 03:21:05;;;;;;;7.57;6.70;;;;;;;20.16;93.50;95955.03;4974235;28;20417;-69
2021/07/26 03:23:31;;;;;;;9.80;6.90;;;;;;;19.97;94.57;95954.28;4973734;28;20412;-69
2021/07/26 03:25:57;;;;;;;8.20;6.60;;;;;;;20.13;94.32;95960.13;4974457;28;20413;-70
2021/07/26 03:28:23;;;;;;;6.80;6.30;;;;;;;20.26;93.83;95972.72;4975179;28;20221;-69
2021/07/26 03:30:48;;;;;;;8.33;6.37;;;;;;;20.39;92.86;95962.06;4981692;28;20177;-69
2021/07/26 03:33:14;;;;;;;6.40;5.90;;;;;;;20.49;92.85;95974.41;4996564;28;20359;-70
2021/07/26 03:35:39;;;;;;;7.60;6.90;;;;;;;20.62;92.24;95970.16;4996871;28;20197;-69
2021/07/26 03:38:05;;;;;;;11.37;6.27;;;;;;;20.65;92.42;95972.22;4997040;28;20180;-70
2021/07/26 03:40:34;;;;;;;7.83;5.50;;;;;;;20.69;92.28;95978.56;4997301;28;20204;-69
2021/07/26 03:43:04;;;;;;;7.37;5.70;;;;;;;20.72;92.29;95970.75;4996533;28;20219;-71
2021/07/26 03:45:29;;;;;;;6.10;5.50;;;;;;;20.84;91.46;95965.66;4992659;28;20448;-69
2021/07/26 03:47:59;;;;;;;5.90;5.40;;;;;;;20.84;91.33;95967.53;4977476;28;20402;-70
2021/07/26 03:50:28;;;;;;;6.63;6.00;;;;;;;20.74;90.26;95965.91;4977336;28;20185;-69
2021/07/26 03:52:55;;;;;;;6.90;6.10;;;;;;;20.77;90.81;95970.63;4977135;28;20967;-69
2021/07/26 03:55:32;;;;;;;6.83;6.17;;;;;;;20.78;90.20;95958.06;4977231;28;20516;-69
2021/07/26 03:57:58;;;;;;;6.47;5.80;;;;;;;20.63;90.04;95961.84;4977155;28;20472;-71
2021/07/26 04:00:26;;;;;;;6.30;5.80;;;;;;;20.53;90.32;95961.28;4982095;28;20436;-70
2021/07/26 04:03:10;;;;;;;7.33;6.63;;;;;;;20.42;91.12;95955.31;4996212;28;20507;-69
2021/07/26 04:05:55;;;;;;;6.00;5.50;;;;;;;20.47;90.64;95957.91;4996561;28;20906;-71
2021/07/26 04:08:27;;;;;;;6.63;6.03;;;;;;;20.59;90.22;95962.72;4994200;28;20835;-69
2021/07/26 04:11:01;;;;;;;6.77;6.17;;;;;;;20.61;90.34;95964.03;4977089;28;20437;-70
2021/07/26 04:13:26;;;;;;;6.47;5.30;;;;;;;20.67;90.71;95967.38;5013362;28;20456;-71
2021/07/26 04:15:52;;;;;;;6.83;6.27;;;;;;;20.68;90.98;95969.75;5016165;28;20454;-69
2021/07/26 04:18:18;;;;;;;6.50;6.00;;;;;;;20.79;90.37;95962.31;5016095;28;20584;-71
2021/07/26 04:20:43;;;;;;;6.20;5.60;;;;;;;20.80;90.31;95956.66;5015883;28;20257;-69
2021/07/26 04:23:10;;;;;;;9.70;6.33;;;;;;;20.74;90.57;95957.09;5012475;28;20165;-70
2021/07/26 04:25:35;;;;;;;6.70;6.13;;;;;;;20.84;90.09;95954.97;4996022;28;20201;-69
2021/07/26 04:28:00;;;;;;;6.00;5.40;;;;;;;20.87;89.74;95958.94;4996074;28;20421;-70
2021/07/26 04:30:26;;;;;;;7.07;5.93;;;;;;;20.94;89.72;95959.31;4996165;28;20173;-71
2021/07/26 04:32:51;;;;;;;8.33;6.50;;;;;;;20.93;89.61;95953.19;4983793;28;20199;-71
2021/07/26 04:35:17;;;;;;;6.17;5.57;;;;;;;20.87;89.58;95962.38;4976381;28;20194;-70
2021/07/26 04:37:43;;;;;;;8.17;6.27;;;;;;;20.86;90.17;95952.81;4976451;28;20179;-70
2021/07/26 04:40:09;;;;;;;7.33;5.73;;;;;;;20.78;89.87;95947.38;4976090;28;20181;-71
2021/07/26 04:42:39;;;;;;;7.27;6.57;;;;;;;20.84;88.85;95960.31;4975994;28;20445;-71
2021/07/26 04:45:06;;;;;;;7.33;5.90;;;;;;;20.92;88.54;95954.28;4976290;28;20430;-70
2021/07/26 04:47:32;;;;;;;9.13;6.10;;;;;;;20.98;88.33;95958.41;4986866;28;20487;-69
2021/07/26 04:49:57;;;;;;;7.10;6.00;;;;;;;21.00;88.31;95961.59;4995810;28;20444;-69
2021/07/26 04:52:22;;;;;;;7.53;6.80;;;;;;;21.03;88.66;95953.00;4995771;28;20185;-69
2021/07/26 04:54:48;;;;;;;6.73;6.13;;;;;;;21.01;88.68;95963.19;4995066;28;20205;-70
2021/07/26 04:57:13;;;;;;;12.07;6.63;;;;;;;21.06;88.55;95963.09;4995565;28;20184;-71
2021/07/26 04:59:39;;;;;;;6.77;6.17;;;;;;;21.03;88.46;95968.25;4995555;28;20169;-70
2021/07/26 05:02:05;;;;;;;8.27;6.07;;;;;;;21.06;87.97;95965.75;4985893;28;20257;-69
2021/07/26 05:04:30;;;;;;;12.57;6.40;;;;;;;20.88;88.34;95974.66;4974859;28;20203;-70
2021/07/26 05:07:00;;;;;;;6.37;5.87;;;;;;;20.91;87.90;95974.06;4991695;28;20188;-70
2021/07/26 05:09:26;;;;;;;9.70;6.50;;;;;;;20.86;88.35;95981.38;4995267;28;20169;-69
2021/07/26 05:11:51;;;;;;;6.03;5.53;;;;;;;20.84;88.40;95983.56;5000911;28;20502;-69
2021/07/26 05:14:17;;;;;;;6.77;6.17;;;;;;;20.92;88.10;95993.56;5014243;28;20263;-70
2021/07/26 05:16:42;;;;;;;7.77;5.90;;;;;;;20.89;88.03;95991.50;5014780;28;20231;-69
2021/07/26 05:19:08;;;;;;;8.20;5.73;;;;;;;20.90;87.87;95985.84;5015021;28;20223;-70
2021/07/26 05:21:33;;;;;;;7.20;5.80;;;;;;;20.92;87.41;95988.22;4985004;28;20185;-71
2021/07/26 05:24:00;;;;;;;6.07;5.57;;;;;;;20.88;87.84;95982.69;4975156;28;20198;-69
2021/07/26 05:26:26;;;;;;;5.73;5.10;;;;;;;20.96;88.03;95989.97;4975547;28;20170;-69
2021/07/26 05:28:51;;;;;;;7.83;6.87;;;;;;;21.05;87.23;95995.44;4976053;28;20468;-70
2021/07/26 05:31:17;;;;;;;5.57;5.00;;;;;;;20.90;87.33;96001.09;4975382;28;20174;-69
2021/07/26 05:33:42;;;;;;;8.23;5.67;;;;;;;20.65;88.18;96005.06;4974938;28;20201;-69
2021/07/26 05:36:08;;;;;;;5.57;5.07;;;;;;;20.56;88.11;95995.38;4988629;28;20181;-70
2021/07/26 05:38:33;;;;;;;8.40;5.80;;;;;;;20.35;88.87;96000.31;4994752;28;20248;-70
2021/07/26 05:41:00;;;;;;;6.70;5.70;;;;;;;20.39;88.96;96002.09;4994698;28;20177;-69
2021/07/26 05:43:25;;;;;;;7.07;5.57;;;;;;;20.48;88.53;96002.19;4994516;28;20161;-71
2021/07/26 05:45:50;;;;;;;6.20;5.60;;;;;;;20.34;89.66;95999.53;4994493;28;20463;-71
2021/07/26 05:48:16;;;;;;;8.30;6.20;;;;;;;20.52;89.54;95994.38;4994585;28;20194;-69
2021/07/26 05:50:41;;;;;;;6.30;5.70;;;;;;;20.64;89.60;95998.13;4981459;28;20225;-70
2021/07/26 05:53:06;;;;;;;6.40;5.17;;;;;;;20.65;89.86;95993.59;4974677;28;20706;-70
2021/07/26 05:55:32;;;;;;;5.40;4.90;;;;;;;20.45;88.14;95990.22;4975043;28;20248;-71
2021/07/26 05:58:00;;;;;;;5.97;5.47;;;;;;;20.16;90.11;95995.03;4975025;28;20220;-71
2021/07/26 06:00:35;;;;;;;4.80;4.40;;;;;;;20.47;89.54;95982.72;4975079;28;20170;-71
2021/07/26 06:03:00;;;;;;;5.13;4.63;;;;;;;20.69;88.10;95982.00;4973389;28;20505;-71
2021/07/26 06:05:26;;;;;;;5.70;5.10;;;;;;;20.79;87.20;95981.81;4985545;28;20451;-69
2021/07/26 06:07:52;;;;;;;5.40;4.90;;;;;;;20.63;87.19;95975.19;4991179;28;20193;-69
2021/07/26 06:10:18;;;;;;;6.43;4.40;;;;;;;20.53;86.82;95986.06;4994326;28;20180;-69
2021/07/26 06:12:43;;;;;;;8.40;5.80;;;;;;;20.68;86.66;95999.13;5006450;28;20420;-71
2021/07/26 06:15:09;;;;;;;6.67;4.33;;;;;;;20.74;86.82;95995.28;5013786;28;20262;-71
2021/07/26 06:17:34;;;;;;;7.97;4.43;;;;;;;20.72;86.82;95992.09;5013628;28;20739;-70
2021/07/26 06:20:00;;;;;;;5.53;4.70;;;;;;;20.79;86.30;95992.50;5006104;28;20279;-70
2021/07/26 06:22:25;;;;;;;5.23;4.73;;;;;;;20.65;85.32;96007.75;4976421;28;20178;-70
2021/07/26 06:24:50;;;;;;;5.50;4.43;;;;;;;20.86;85.78;96003.56;4974244;28;20272;-69
2021/07/26 06:27:16;;;;;;;5.63;4.60;;;;;;;21.09;85.13;96012.44;4974879;28;20173;-69
2021/07/26 06:29:41;;;;;;;4.93;4.53;;;;;;;21.10;84.88;96003.34;4974591;28;20178;-69
2021/07/26 06:32:06;;;;;;;7.00;5.10;;;;;;;21.06;84.42;96008.50;4974758;28;20174;-71
2021/07/26 06:34:32;;;;;;;5.10;4.60;;;;;;;20.84;85.36;96002.28;4974030;28;20218;-69
2021/07/26 06:36:57;;;;;;;5.90;5.10;;;;;;;20.67;85.93;95991.41;4989797;28;20194;-70
2021/07/26 06:39:23;;;;;;;4.70;4.17;;;;;;;20.90;85.09;95998.41;4975877;28;20181;-71
2021/07/26 06:41:48;;;;;;;4.87;4.47;;;;;;;21.06;84.61;96005.84;4974494;28;20184;-70
2021/07/26 06:44:13;;;;;;;7.40;5.33;;;;;;;21.15;84.94;96005.91;4974167;28;20189;-70
2021/07/26 06:46:40;;;;;;;4.63;4.33;;;;;;;21.06;84.02;96005.03;4974581;28;20702;-71
2021/07/26 06:49:06;;;;;;;6.90;4.53;;;;;;;21.19;83.82;96002.34;4974356;28;20568;-70
2021/07/26 06:51:31;;;;;;;6.40;4.60;;;;;;;21.03;85.20;96011.78;4991857;28;20425;-70
2021/07/26 06:53:56;;;;;;;4.77;4.37;;;;;;;20.89;85.77;96010.19;4993290;28;20271;-71
2021/07/26 06:56:22;;;;;;;4.37;3.90;;;;;;;21.08;85.19;96010.88;4993860;28;20252;-70
2021/07/26 06:58:48;;;;;;;5.87;4.60;;;;;;;21.09;84.32;96010.56;4988513;28;20266;-71
2021/07/26 07:01:15;;;;;;;4.60;4.20;;;;;;;21.20;84.95;96016.47;4974465;28;20252;-69
2021/07/26 07:03:44;;;;;;;5.17;4.67;;;;;;;21.13;85.49;96013.44;4996178;28;20170;-70
2021/07/26 07:06:11;;;;;;;4.80;4.40;;;;;;;21.35;84.01;96011.59;4997579;28;20424;-70
2021/07/26 07:08:38;;;;;;;7.83;4.40;;;;;;;21.47;83.71;96019.06;4997679;28;20423;-71
2021/07/26 07:11:11;;;;;;;4.47;4.07;;;;;;;21.42;83.80;96019.19;4997705;28;20427;-69
2021/07/26 07:13:39;;;;;;;5.67;5.07;;;;;;;21.63;84.42;96016.84;4977488;28;20449;-69
2021/07/26 07:16:11;;;;;;;6.00;3.53;;;;;;;21.63;81.90;96017.66;4977900;28;20420;-71
2021/07/26 07:18:38;;;;;;;4.20;3.73;;;;;;;21.58;80.30;96020.41;4997561;28;20906;-70
2021/07/26 07:21:04;;;;;;;4.10;3.50;;;;;;;21.66;80.46;96025.06;4997331;28;20890;-66
2021/07/26 07:23:30;;;;;;;6.97;3.97;;;;;;;21.85;81.48;96016.88;5004671;28;20418;-70
2021/07/26 07:25:55;;;;;;;10.10;3.93;;;;;;;22.15;80.94;96021.47;5016974;28;20787;-66
2021/07/26 07:28:20;;;;;;;5.73;4.20;;;;;;;22.32;79.32;96019.66;5000190;28;20554;-70
2021/07/26 07:30:46;;;;;;;5.83;3.93;;;;;;;22.52;79.14;96021.00;5009582;28;20539;-70
2021/07/26 07:33:11;;;;;;;3.97;3.57;;;;;;;22.41;76.08;96028.53;5016278;28;20542;-70
2021/07/26 07:35:37;;;;;;;5.60;3.90;;;;;;;22.63;76.40;96024.25;5016641;28;20296;-66
2021/07/26 07:38:02;;;;;;;3.80;3.50;;;;;;;22.70;73.32;96032.63;5016464;28;20203;-70
2021/07/26 07:40:28;;;;;;;3.60;3.30;;;;;;;22.90;75.01;96040.09;5016536;28;20169;-70
2021/07/26 07:42:53;;;;;;;4.40;3.70;;;;;;;22.96;74.45;96042.31;5016255;28;20246;-70
2021/07/26 07:45:19;;;;;;;3.80;3.40;;;;;;;23.14;73.92;96046.59;4996622;28;20662;-67
2021/07/26 07:47:45;;;;;;;4.10;3.50;;;;;;;23.33;73.75;96044.47;4997011;28;20181;-66
2021/07/26 07:50:14;;;;;;;5.00;3.83;;;;;;;23.51;73.12;96052.53;4996977;28;20223;-66
2021/07/26 07:52:39;;;;;;;3.90;3.50;;;;;;;23.58;72.07;96044.78;4996389;28;20401;-67
2021/07/26 07:55:06;;;;;;;4.17;3.77;;;;;;;23.63;73.62;96053.47;4996594;28;20432;-70
2021/07/26 07:57:35;;;;;;;4.20;3.90;;;;;;;23.61;71.65;96047.63;4996755;28;20197;-72
2021/07/26 08:00:01;;;;;;;5.00;3.70;;;;;;;23.80;72.03;96060.72;4974887;28;20508;-72
2021/07/26 08:02:26;;;;;;;5.40;3.77;;;;;;;23.95;71.77;96061.03;4973793;28;20417;-70
2021/07/26 08:04:52;;;;;;;4.53;3.70;;;;;;;24.09;71.11;96053.63;4973359;28;21009;-69
2021/07/26 08:07:17;;;;;;;5.00;4.20;;;;;;;23.95;69.63;96061.03;4982264;28;20181;-67
2021/07/26 08:09:42;;;;;;;4.30;3.90;;;;;;;23.83;70.88;96058.19;4993050;28;20174;-65
2021/07/26 08:12:08;;;;;;;5.90;4.00;;;;;;;24.00;71.10;96058.22;4987627;28;20647;-67
2021/07/26 08:14:33;;;;;;;4.30;4.00;;;;;;;24.00;70.13;96068.13;4972491;28;20228;-66
2021/07/26 08:17:02;;;;;;;4.20;3.80;;;;;;;23.93;71.33;96074.00;4973553;28;20174;-67
2021/07/26 08:19:31;;;;;;;4.17;3.77;;;;;;;23.67;71.00;96069.72;4976216;28;20185;-65
2021/07/26 08:21:56;;;;;;;4.23;3.70;;;;;;;23.53;72.45;96064.53;4973633;28;20508;-66
2021/07/26 08:24:21;;;;;;;4.20;3.90;;;;;;;23.64;72.58;96065.81;4972409;28;21007;-66
2021/07/26 08:26:47;;;;;;;4.30;4.00;;;;;;;23.87;71.62;96061.84;4973327;28;20173;-65
2021/07/26 08:29:12;;;;;;;5.27;3.90;;;;;;;23.64;73.02;96059.63;4984908;28;20182;-67
2021/07/26 08:31:38;;;;;;;5.20;4.40;;;;;;;23.50;75.04;96062.44;4992726;28;20177;-65
2021/07/26 08:34:03;;;;;;;4.80;4.40;;;;;;;23.65;75.04;96056.63;4992294;28;20321;-64
2021/07/26 08:36:29;;;;;;;6.13;4.57;;;;;;;23.88;73.68;96049.22;4990912;28;20237;-64
2021/07/26 08:38:54;;;;;;;4.47;4.10;;;;;;;24.09;74.31;96047.47;4992262;28;20288;-63
2021/07/26 08:41:20;;;;;;;5.10;4.10;;;;;;;24.19;73.82;96057.88;4992474;28;20173;-66
2021/07/26 08:43:46;;;;;;;5.00;4.50;;;;;;;24.21;72.50;96056.44;4992001;28;20187;-67
2021/07/26 08:46:15;;;;;;;4.10;3.80;;;;;;;23.83;72.53;96068.94;4991909;28;20212;-62
2021/07/26 08:48:41;;;;;;;4.20;3.90;;;;;;;23.85;73.32;96065.94;4991928;28;20205;-65
2021/07/26 08:51:09;;;;;;;3.93;3.63;;;;;;;24.03;72.95;96062.16;4991024;28;20558;-65
2021/07/26 08:53:37;;;;;;;4.23;3.70;;;;;;;23.93;70.76;96051.72;4991685;28;20783;-64
2021/07/26 08:56:05;;;;;;;4.37;3.97;;;;;;;24.13;70.19;96059.94;4984934;28;20432;-64
2021/07/26 08:58:31;;;;;;;3.77;3.43;;;;;;;24.36;70.76;96055.94;4990543;28;20429;-65
2021/07/26 09:00:57;;;;;;;3.20;2.90;;;;;;;24.02;67.88;96049.84;4979136;28;20429;-65
2021/07/26 09:03:22;;;;;;;7.00;3.70;;;;;;;23.83;70.61;96052.03;4972493;28;20173;-65
2021/07/26 09:05:47;;;;;;;4.07;3.60;;;;;;;24.03;68.58;96054.09;4972533;28;20212;-64
2021/07/26 09:08:13;;;;;;;5.20;4.53;;;;;;;24.30;71.27;96043.78;4984587;28;20181;-66
2021/07/26 09:10:44;;;;;;;4.50;4.20;;;;;;;24.46;70.80;96052.91;4991281;28;20169;-66
2021/07/26 09:13:12;;;;;;;4.07;3.77;;;;;;;24.71;69.71;96047.78;5007327;28;20244;-65
2021/07/26 09:15:38;;;;;;;3.77;3.30;;;;;;;24.81;69.63;96055.47;5011327;28;20443;-67
2021/07/26 09:18:05;;;;;;;3.90;3.60;;;;;;;24.85;68.81;96053.72;5011338;28;20411;-64
2021/07/26 09:20:33;;;;;;;3.57;3.37;;;;;;;25.04;70.10;96054.09;5003278;28;20425;-63
2021/07/26 09:23:12;;;;;;;3.67;3.37;;;;;;;24.96;66.26;96055.75;4990966;28;20413;-64
2021/07/26 09:25:46;;;;;;;7.27;3.33;;;;;;;24.84;67.97;96054.84;4990743;28;20431;-65
2021/07/26 09:28:22;;;;;;;4.10;3.63;;;;;;;24.93;67.87;96055.59;4991570;28;20409;-65
2021/07/26 09:30:52;;;;;;;4.40;3.73;;;;;;;25.04;68.61;96048.72;4991569;28;20409;-64
2021/07/26 09:33:18;;;;;;;4.27;3.33;;;;;;;24.86;68.69;96050.72;4991260;28;20555;-63
2021/07/26 09:35:44;;;;;;;4.70;3.93;;;;;;;24.49;67.73;96052.25;4980217;28;20473;-64
2021/07/26 09:38:10;;;;;;;4.40;4.10;;;;;;;24.63;67.18;96044.00;4975047;28;20473;-63
2021/07/26 09:40:36;;;;;;;3.70;3.40;;;;;;;24.85;67.88;96038.41;4977507;28;20178;-65
2021/07/26 09:43:17;;;;;;;4.30;3.93;;;;;;;24.95;67.04;96035.31;4975024;28;20520;-74
2021/07/26 09:45:42;;;;;;;4.73;3.90;;;;;;;25.06;66.69;96038.44;4971637;28;20707;-66
2021/07/26 09:48:11;;;;;;;3.93;3.53;;;;;;;25.10;65.86;96036.66;4971208;28;20421;-62
2021/07/26 09:50:37;;;;;;;3.70;3.37;;;;;;;25.30;65.28;96034.03;4971781;28;20249;-69
2021/07/26 09:53:15;;;;;;;3.70;3.40;;;;;;;25.57;68.97;96034.63;4973001;28;20512;-62
2021/07/26 09:55:43;;;;;;;3.60;3.30;;;;;;;25.45;61.86;96038.06;4975433;28;20496;-69
2021/07/26 09:58:13;;;;;;;3.23;2.83;;;;;;;24.91;60.16;96028.25;4975557;28;20547;-62
2021/07/26 10:00:40;;;;;;;3.00;2.80;;;;;;;24.98;61.32;96021.25;4974927;28;20441;-69
2021/07/26 10:03:08;;;;;;;2.73;2.53;;;;;;;24.63;64.07;96022.50;4974668;28;20408;-69
2021/07/26 10:05:34;;;;;;;2.80;2.60;;;;;;;25.16;62.11;96016.53;4985041;28;20512;-62
2021/07/26 10:08:02;;;;;;;3.10;2.83;;;;;;;25.47;62.66;96011.63;4994634;28;20408;-70
2021/07/26 10:10:27;;;;;;;2.83;2.63;;;;;;;25.65;61.22;96007.66;4994379;28;20407;-62
2021/07/26 10:12:54;;;;;;;2.90;2.70;;;;;;;25.98;61.66;96013.84;4994034;28;20825;-68
2021/07/26 10:15:19;;;;;;;3.40;3.10;;;;;;;25.57;57.79;96015.78;4994363;28;20647;-64
2021/07/26 10:17:49;;;;;;;4.80;2.93;;;;;;;25.69;58.75;96015.88;4994094;28;20403;-62
2021/07/26 10:20:29;;;;;;;3.60;2.50;;;;;;;25.67;56.38;96018.88;4991089;28;20204;-69
2021/07/26 10:22:59;;;;;;;3.10;2.90;;;;;;;25.65;57.15;96021.13;4993930;28;20412;-69
2021/07/26 10:25:36;;;;;;;3.00;2.70;;;;;;;25.16;57.62;96025.41;4994188;28;20973;-62
2021/07/26 10:28:09;;;;;;;3.60;3.00;;;;;;;25.48;58.99;96020.44;4994351;28;20503;-63
2021/07/26 10:30:36;;;;;;;2.83;2.60;;;;;;;25.90;60.74;96027.38;4994435;28;20447;-70
2021/07/26 10:33:03;;;;;;;2.97;2.77;;;;;;;26.09;59.75;96017.72;4993139;28;20427;-63
2021/07/26 10:35:47;;;;;;;3.70;2.77;;;;;;;26.31;56.61;96017.31;4983963;28;20484;-68
2021/07/26 10:38:13;;;;;;;4.03;3.10;;;;;;;26.38;60.84;96011.38;4979393;28;20443;-62
2021/07/26 10:40:40;;;;;;;2.90;2.70;;;;;;;26.68;57.85;96020.91;4987356;28;20919;-68
2021/07/26 10:43:11;;;;;;;3.00;2.70;;;;;;;26.93;56.54;96005.50;4980937;28;20170;-68
2021/07/26 10:45:36;;;;;;;2.60;2.43;;;;;;;27.21;57.29;96012.53;4980982;28;20441;-67
2021/07/26 10:48:20;;;;;;;3.10;2.90;;;;;;;27.20;56.82;96010.19;4981135;28;20412;-67
2021/07/26 10:50:50;;;;;;;3.67;3.30;;;;;;;26.73;53.52;95998.28;4981294;28;20632;-67
2021/07/26 10:53:37;;;;;;;3.10;2.80;;;;;;;26.96;56.81;95994.03;4993657;28;20460;-67
2021/07/26 10:56:13;;;;;;;3.23;2.93;;;;;;;27.03;53.64;95997.72;5000454;28;20393;-67
2021/07/26 10:58:38;;;;;;;2.93;2.60;;;;;;;27.29;55.37;95995.44;5000534;28;20447;-68
2021/07/26 11:01:19;;;;;;;2.67;2.43;;;;;;;26.47;54.14;95993.19;4984366;28;20777;-67
2021/07/26 11:03:44;;;;;;;4.17;3.80;;;;;;;26.66;57.25;95993.44;4980458;28;20173;-61
2021/07/26 11:06:09;;;;;;;3.27;2.97;;;;;;;26.67;54.70;95986.16;4984056;28;20420;-67
2021/07/26 11:08:35;;;;;;;3.73;3.13;;;;;;;26.72;53.49;95977.84;4996868;28;20166;-61
2021/07/26 11:11:00;;;;;;;3.53;3.30;;;;;;;27.10;56.20;95981.78;4996840;28;20644;-62
2021/07/26 11:13:45;;;;;;;3.43;3.13;;;;;;;27.34;52.94;95986.34;4996434;28;20198;-66
2021/07/26 11:16:10;;;;;;;3.10;2.90;;;;;;;27.43;55.41;95981.59;4992027;28;20269;-66
2021/07/26 11:18:40;;;;;;;3.30;3.10;;;;;;;27.55;55.04;95986.16;4977237;28;20493;-65
2021/07/26 11:21:06;;;;;;;2.87;2.67;;;;;;;27.63;55.91;95986.03;4991279;28;20663;-61
2021/07/26 11:23:55;;;;;;;2.90;2.70;;;;;;;27.62;54.89;95983.66;4996465;28;20416;-66
2021/07/26 11:26:26;;;;;;;3.73;3.43;;;;;;;27.52;52.50;95981.47;4988873;28;20440;-65
2021/07/26 11:28:59;;;;;;;3.30;3.00;;;;;;;27.60;52.06;95975.91;5011243;28;20412;-61
2021/07/26 11:31:33;;;;;;;3.07;2.87;;;;;;;27.53;50.67;95970.31;5015766;28;20573;-61
2021/07/26 11:34:07;;;;;;;3.67;3.37;;;;;;;27.01;54.79;95964.13;5013536;28;20513;-59